Terminal Aerodrome Forecast
Issued by NWS Sterling, VA

Current Version | Previous Version | Graphics & Text | Print | Product List | Glossary On
Versions: 1 2 3 4 5 6 7 8 9 10 11 12 13 14 15 16 17 18 19 20 21 22 23 24
000
FTUS41 KLWX 130854 AAA
TAFIAD
TAF AMD
KIAD 130854Z 1309/1412 31018G28KT P6SM BKN050
     FM131300 29016G27KT P6SM FEW250
     FM132100 25009KT P6SM BKN060
     FM132300 22005KT P6SM OVC060=

USA.gov is the U.S. government's official web portal to all federal, state and local government web resources and services.